Time;durP1;ratioP1;P1;durP2;ratioP2;P2;SDS_P1;SDS_P2;PMS_P1;PMS_P2;Temp;Humidity;BMP_temperature;BMP_pressure;BME280_temperature;BME280_humidity;BME280_pressure;Samples;Min_cycle;Max_cycle;Signal;HPM_P1;HPM_P2
2021/12/24 00:00:10;;;;;;;61.65;30.38;;;;;;;-4.70;70.90;93592.53;5103346;27;20051;-58
2021/12/24 00:02:36;;;;;;;70.47;29.60;;;;;;;-4.65;69.56;93608.09;5103285;27;20431;-58
2021/12/24 00:05:03;;;;;;;65.45;31.17;;;;;;;-5.04;71.68;93595.47;5107208;28;20043;-57
2021/12/24 00:07:29;;;;;;;56.20;30.88;;;;;;;-4.81;71.12;93610.31;5102153;27;20051;-58
2021/12/24 00:09:54;;;;;;;62.47;31.17;;;;;;;-4.90;70.96;93596.84;5103882;27;21279;-57
2021/12/24 00:12:22;;;;;;;65.55;33.50;;;;;;;-4.70;71.70;93613.34;5099599;28;20039;-56
2021/12/24 00:14:52;;;;;;;57.78;27.05;;;;;;;-4.56;71.81;93607.34;5104080;28;20030;-55
2021/12/24 00:17:24;;;;;;;76.82;34.35;;;;;;;-4.55;70.17;93606.16;5104133;28;20019;-58
2021/12/24 00:36:07;;;;;;;54.42;29.98;;;;;;;-4.82;71.09;93593.41;5097995;28;20081;-58
2021/12/24 00:38:33;;;;;;;51.50;28.33;;;;;;;-4.80;70.68;93595.66;5104669;28;20028;-58
2021/12/24 00:40:58;;;;;;;49.22;26.60;;;;;;;-4.94;71.39;93566.63;5105136;28;20408;-58
2021/12/24 00:43:24;;;;;;;59.95;32.33;;;;;;;-4.87;70.01;93560.94;5096625;28;20035;-58
2021/12/24 00:45:49;;;;;;;52.85;28.85;;;;;;;-5.04;70.57;93583.94;5107244;28;20019;-58
2021/12/24 00:48:17;;;;;;;60.50;32.35;;;;;;;-5.02;70.25;93578.84;5101918;28;20490;-58
2021/12/24 00:55:57;;;;;;;50.78;27.33;;;;;;;-5.66;71.64;93524.16;5100625;28;20076;-66
2021/12/24 00:58:22;;;;;;;61.10;29.85;;;;;;;-5.51;71.45;93552.75;5100481;28;20058;-64
2021/12/24 01:00:48;;;;;;;52.00;26.45;;;;;;;-5.42;72.61;93568.16;5103291;28;20477;-65
2021/12/24 01:03:13;;;;;;;55.17;27.92;;;;;;;-5.55;72.10;93536.00;5101523;28;20026;-67
2021/12/24 01:05:40;;;;;;;46.50;23.98;;;;;;;-5.55;72.64;93562.88;5108235;28;20538;-66
2021/12/24 01:08:06;;;;;;;40.42;22.80;;;;;;;-5.59;72.94;93548.06;5096879;28;20047;-66
2021/12/24 01:10:38;;;;;;;33.65;18.27;;;;;;;-5.41;71.42;93554.25;5102446;28;20066;-66
2021/12/24 01:13:04;;;;;;;42.50;23.10;;;;;;;-5.48;71.63;93557.22;5105290;28;20020;-65
2021/12/24 01:15:31;;;;;;;46.85;25.48;;;;;;;-5.54;71.02;93555.56;5104422;28;20026;-67
2021/12/24 01:18:08;;;;;;;57.75;30.73;;;;;;;-5.58;71.16;93561.06;5104115;28;20093;-67
2021/12/24 01:39:04;;;;;;;70.05;31.42;;;;;;;-5.70;71.78;93528.91;5108933;28;20085;-63
2021/12/24 01:44:14;;;;;;;39.40;24.35;;;;;;;-6.20;72.56;93528.13;5106343;28;20037;-66
2021/12/24 01:46:39;;;;;;;33.35;18.02;;;;;;;-5.99;71.91;93536.56;5099063;28;20024;-64
2021/12/24 01:49:05;;;;;;;33.22;17.38;;;;;;;-6.01;71.08;93512.09;5098235;28;20024;-64
2021/12/24 01:51:30;;;;;;;34.35;16.60;;;;;;;-6.08;71.36;93533.84;5109447;28;20404;-64
2021/12/24 01:53:56;;;;;;;29.80;14.98;;;;;;;-6.26;71.97;93519.13;5109248;28;20063;-62
2021/12/24 01:56:22;;;;;;;28.33;15.70;;;;;;;-6.46;71.85;93491.88;5106285;28;20021;-61
2021/12/24 01:58:47;;;;;;;36.72;17.95;;;;;;;-6.23;72.32;93504.81;5107565;28;20031;-61
2021/12/24 02:01:13;;;;;;;68.95;31.95;;;;;;;-6.29;73.32;93495.09;5101367;28;20035;-62
2021/12/24 02:03:38;;;;;;;86.90;40.17;;;;;;;-6.52;73.56;93496.28;5098146;28;20136;-62
2021/12/24 02:06:04;;;;;;;86.45;37.35;;;;;;;-6.38;73.30;93509.22;5108280;28;20028;-62
2021/12/24 02:08:29;;;;;;;75.15;35.13;;;;;;;-6.47;73.03;93505.72;5106970;27;20160;-62
2021/12/24 02:10:55;;;;;;;69.72;35.72;;;;;;;-6.51;72.20;93507.78;5098511;28;20064;-61
2021/12/24 02:13:22;;;;;;;69.38;32.17;;;;;;;-6.80;72.93;93504.63;5088726;28;20062;-59
2021/12/24 02:16:05;;;;;;;69.10;33.28;;;;;;;-6.59;72.81;93496.56;5110673;28;20023;-60
2021/12/24 02:28:17;;;;;;;67.18;33.25;;;;;;;-6.54;72.73;93485.25;5104005;27;20031;-60
2021/12/24 02:29:39;;;;;;;48.35;23.40;;;;;;;-6.98;72.52;93468.41;5099257;28;20083;-60
2021/12/24 02:32:05;;;;;;;29.90;14.43;;;;;;;-6.79;72.00;93498.81;5102324;28;20474;-59
2021/12/24 02:34:30;;;;;;;24.17;11.35;;;;;;;-6.68;70.11;93474.28;5104823;28;20023;-59
2021/12/24 02:36:56;;;;;;;26.27;12.30;;;;;;;-6.85;70.68;93457.63;5105291;28;20046;-59
2021/12/24 02:39:21;;;;;;;24.08;12.35;;;;;;;-6.64;70.61;93474.88;5103528;28;20408;-59
2021/12/24 02:41:47;;;;;;;25.50;13.02;;;;;;;-6.99;72.34;93482.25;5105469;28;20027;-59
2021/12/24 02:44:13;;;;;;;21.55;12.43;;;;;;;-7.06;72.30;93459.09;5104722;28;20027;-58
2021/12/24 02:49:14;;;;;;;20.63;11.57;;;;;;;-6.90;71.82;93466.22;5103778;28;20413;-58
2021/12/24 02:54:24;;;;;;;19.20;11.10;;;;;;;-6.59;71.04;93472.41;5110681;28;20035;-58
2021/12/24 02:56:58;;;;;;;21.30;11.50;;;;;;;-6.63;71.48;93462.97;5105240;27;20488;-60
2021/12/24 02:59:26;;;;;;;23.02;13.20;;;;;;;-6.48;69.87;93477.38;5101832;28;20508;-60
2021/12/24 03:01:53;;;;;;;19.25;11.18;;;;;;;-6.87;69.89;93417.06;5102610;28;20019;-59
2021/12/24 03:04:19;;;;;;;35.17;15.43;;;;;;;-6.60;69.39;93451.34;5102815;28;20035;-58
2021/12/24 03:06:49;;;;;;;33.05;16.67;;;;;;;-6.77;70.72;93445.44;5101628;28;20041;-57
2021/12/24 03:09:16;;;;;;;31.42;16.35;;;;;;;-6.88;71.20;93447.75;5104858;27;20482;-58
2021/12/24 03:11:43;;;;;;;31.77;15.95;;;;;;;-7.02;71.12;93430.22;5102221;28;20156;-58
2021/12/24 03:14:09;;;;;;;29.45;14.55;;;;;;;-6.97;71.77;93421.59;5105958;28;20504;-60
2021/12/24 03:16:36;;;;;;;30.38;14.15;;;;;;;-7.02;72.71;93426.78;5100408;27;20431;-58
2021/12/24 03:19:02;;;;;;;32.83;15.38;;;;;;;-6.91;72.61;93431.78;5104104;28;20085;-58
2021/12/24 03:26:47;;;;;;;23.75;13.82;;;;;;;-7.09;71.64;93435.09;5098370;28;20089;-57
2021/12/24 03:29:14;;;;;;;30.40;14.75;;;;;;;-6.88;70.19;93431.66;5104170;28;20027;-57
2021/12/24 03:31:40;;;;;;;34.65;17.67;;;;;;;-6.86;70.30;93428.53;5101341;28;20427;-57
2021/12/24 03:34:09;;;;;;;25.83;12.82;;;;;;;-6.64;69.60;93437.31;5098327;28;20042;-59
2021/12/24 03:36:34;;;;;;;24.77;11.77;;;;;;;-6.90;70.18;93404.50;5103394;28;20035;-59
2021/12/24 03:39:00;;;;;;;40.80;17.85;;;;;;;-6.98;71.21;93405.94;5104168;28;20040;-59
2021/12/24 03:41:26;;;;;;;18.98;10.68;;;;;;;-6.91;71.13;93415.69;5103439;28;20500;-58
2021/12/24 03:43:52;;;;;;;16.08;8.90;;;;;;;-6.88;69.25;93410.19;5103498;28;20024;-59
2021/12/24 03:46:23;;;;;;;16.38;9.80;;;;;;;-6.81;68.98;93412.59;5095285;28;20028;-59
2021/12/24 03:48:54;;;;;;;14.65;8.02;;;;;;;-7.19;68.22;93372.56;5100542;28;20081;-59
2021/12/24 03:56:36;;;;;;;26.58;15.60;;;;;;;-6.97;70.42;93396.69;5097301;28;20100;-60
2021/12/24 03:59:03;;;;;;;26.63;14.27;;;;;;;-7.41;69.73;93363.81;5096761;28;20093;-59
2021/12/24 04:01:28;;;;;;;38.08;19.67;;;;;;;-7.33;70.36;93396.47;5095110;28;20118;-59
2021/12/24 04:03:54;;;;;;;48.25;22.98;;;;;;;-7.32;70.97;93387.25;5109944;27;20062;-59
2021/12/24 04:06:19;;;;;;;47.53;21.70;;;;;;;-7.81;71.75;93381.63;5101274;28;20043;-58
2021/12/24 04:08:45;;;;;;;40.20;20.50;;;;;;;-7.73;71.26;93383.63;5102224;28;20507;-58
2021/12/24 04:11:11;;;;;;;120.25;47.42;;;;;;;-7.43;71.40;93405.63;5097400;28;20020;-58
2021/12/24 04:13:37;;;;;;;61.35;29.05;;;;;;;-7.46;71.36;93401.13;5107824;28;20023;-58
2021/12/24 04:16:03;;;;;;;92.68;38.67;;;;;;;-7.39;70.68;93395.53;5104150;28;20028;-58
2021/12/24 04:26:24;;;;;;;26.17;14.00;;;;;;;-7.09;70.28;93398.28;5102691;28;20096;-58
2021/12/24 04:28:50;;;;;;;32.83;16.13;;;;;;;-7.37;71.54;93375.16;5103068;28;20416;-57
2021/12/24 04:31:18;;;;;;;40.83;20.35;;;;;;;-7.28;71.50;93379.81;5101995;28;20023;-57
2021/12/24 04:33:47;;;;;;;21.00;11.47;;;;;;;-7.20;69.48;93392.53;5103075;28;20050;-58
2021/12/24 05:03:07;;;;;;;30.55;15.77;;;;;;;-7.33;70.93;93385.75;5109276;28;20050;-58
2021/12/24 05:05:45;;;;;;;28.38;15.98;;;;;;;-7.41;70.87;93397.91;5104922;28;20034;-56
2021/12/24 05:10:40;;;;;;;;;;;;;;;-7.28;70.57;93396.66;5110169;28;20615;-58
2021/12/24 05:13:07;;;;;;;28.02;14.23;;;;;;;-7.37;71.09;93403.88;5101137;28;19911;-58
2021/12/24 05:15:37;;;;;;;23.63;13.23;;;;;;;-7.20;71.55;93405.97;5108971;27;20063;-58
2021/12/24 05:18:31;;;;;;;41.45;18.45;;;;;;;-7.35;71.29;93398.84;5112597;28;20054;-57
2021/12/24 05:23:42;;;;;;;47.50;23.98;;;;;;;-7.28;69.93;93372.53;5105393;28;20043;-58
2021/12/24 05:26:07;;;;;;;46.90;23.48;;;;;;;-7.05;69.98;93403.50;5103621;28;20028;-58
2021/12/24 05:28:33;;;;;;;53.30;26.98;;;;;;;-7.23;68.72;93371.19;5106463;28;20076;-57
2021/12/24 05:30:59;;;;;;;57.75;27.23;;;;;;;-7.00;69.43;93411.00;5101655;28;20028;-58
2021/12/24 05:33:24;;;;;;;55.38;25.30;;;;;;;-7.06;69.57;93410.81;5098838;28;20418;-58
2021/12/24 05:35:50;;;;;;;54.25;27.52;;;;;;;-7.12;68.97;93398.38;5101344;28;20460;-58
2021/12/24 05:38:17;;;;;;;122.35;50.55;;;;;;;-7.29;69.99;93389.03;5107397;28;20080;-53
2021/12/24 05:40:43;;;;;;;78.07;33.92;;;;;;;-7.42;71.03;93399.81;5104105;28;20027;-51
2021/12/24 05:43:09;;;;;;;137.95;57.40;;;;;;;-7.49;71.11;93399.34;5101829;27;20431;-54
2021/12/24 05:45:35;;;;;;;93.38;40.55;;;;;;;-7.48;71.93;93390.09;5106228;27;20024;-57
2021/12/24 05:48:01;;;;;;;75.60;35.65;;;;;;;-7.35;72.12;93402.28;5107003;28;20468;-58
2021/12/24 05:50:26;;;;;;;71.90;32.67;;;;;;;-7.28;72.39;93393.22;5107538;27;20076;-61
2021/12/24 05:52:52;;;;;;;57.17;27.23;;;;;;;-7.26;71.24;93383.56;5109828;27;20024;-62
2021/12/24 05:55:18;;;;;;;61.85;30.95;;;;;;;-7.10;70.12;93393.34;5104827;27;20120;-61
2021/12/24 05:57:44;;;;;;;51.70;28.75;;;;;;;-7.43;70.82;93357.38;5106291;27;20028;-60
2021/12/24 06:00:11;;;;;;;57.85;28.45;;;;;;;-7.04;71.12;93399.66;5103166;27;20412;-58
2021/12/24 06:02:36;;;;;;;52.90;27.00;;;;;;;-6.98;69.90;93389.84;5104676;27;20031;-58
2021/12/24 06:05:02;;;;;;;55.58;29.08;;;;;;;-7.01;70.16;93380.75;5105904;27;20035;-58
2021/12/24 06:07:28;;;;;;;49.03;25.63;;;;;;;-7.01;70.68;93374.63;5109327;27;20445;-59
2021/12/24 06:09:54;;;;;;;43.45;21.50;;;;;;;-6.86;70.84;93401.72;5105770;27;20111;-58
2021/12/24 06:12:19;;;;;;;30.38;15.93;;;;;;;-6.85;70.62;93389.78;5103842;27;20494;-58
2021/12/24 06:14:52;;;;;;;33.67;16.08;;;;;;;-6.73;71.18;93392.38;5113622;27;20035;-56
2021/12/24 06:17:18;;;;;;;35.72;19.30;;;;;;;-6.70;69.44;93374.63;5098752;28;20116;-56
2021/12/24 06:19:43;;;;;;;55.92;24.98;;;;;;;-6.69;70.10;93384.91;5105522;28;20540;-51
2021/12/24 06:22:10;;;;;;;39.70;22.85;;;;;;;-6.60;70.18;93394.94;5103368;27;20035;-55
2021/12/24 06:24:36;;;;;;;42.10;24.27;;;;;;;-6.90;69.76;93360.81;5097259;28;20072;-51
2021/12/24 06:27:01;;;;;;;44.50;22.02;;;;;;;-6.99;71.28;93399.06;5099612;27;20024;-56
2021/12/24 06:29:27;;;;;;;52.92;27.85;;;;;;;-6.83;70.86;93400.81;5103312;27;20035;-55
2021/12/24 06:31:52;;;;;;;44.05;23.55;;;;;;;-7.01;71.41;93401.44;5111348;28;20038;-53
2021/12/24 06:34:19;;;;;;;56.85;27.40;;;;;;;-6.94;71.35;93393.16;5099134;28;20031;-53
2021/12/24 06:36:47;;;;;;;65.65;31.08;;;;;;;-6.65;71.37;93419.72;5102797;27;20433;-55
2021/12/24 06:39:13;;;;;;;;;;;;;;;-6.64;71.97;93415.81;5106081;27;20042;-54
2021/12/24 06:41:39;;;;;;;55.83;29.23;;;;;;;-6.56;71.53;93409.03;5110515;27;20315;-53
2021/12/24 06:44:08;;;;;;;66.47;28.55;;;;;;;-6.74;70.78;93361.34;5100363;28;20066;-59
2021/12/24 06:46:34;;;;;;;42.53;23.48;;;;;;;-6.43;70.36;93375.50;5105381;28;20028;-59
2021/12/24 06:49:00;;;;;;;45.97;25.25;;;;;;;-6.20;71.17;93399.16;5101668;27;20078;-59
2021/12/24 06:51:26;;;;;;;37.33;19.35;;;;;;;-5.86;70.94;93408.19;5104444;28;20031;-58
2021/12/24 06:53:52;;;;;;;28.42;15.90;;;;;;;-5.76;69.92;93409.69;5106842;28;20058;-59
2021/12/24 06:56:18;;;;;;;46.42;22.90;;;;;;;-5.81;69.46;93384.16;5105735;27;20183;-60
2021/12/24 06:58:45;;;;;;;55.83;29.00;;;;;;;-5.71;69.50;93395.66;5107963;27;20095;-61
2021/12/24 07:01:12;;;;;;;62.53;32.47;;;;;;;-6.03;70.33;93374.72;5110984;27;20035;-60
2021/12/24 07:03:38;;;;;;;64.85;33.55;;;;;;;-5.70;70.24;93392.53;5109538;27;20088;-59
2021/12/24 07:06:04;;;;;;;63.50;33.33;;;;;;;-5.42;70.14;93382.53;5109030;27;20447;-59
2021/12/24 07:08:30;;;;;;;64.35;33.63;;;;;;;-5.56;68.32;93381.19;5107283;27;20027;-60
2021/12/24 07:10:56;;;;;;;67.68;34.20;;;;;;;-5.36;68.92;93361.91;5104127;28;20012;-61
2021/12/24 07:13:21;;;;;;;64.45;27.35;;;;;;;-5.27;68.04;93382.69;5106678;27;20019;-54
2021/12/24 07:15:47;;;;;;;50.58;27.15;;;;;;;-5.22;68.51;93374.78;5105445;28;20048;-64
2021/12/24 07:18:13;;;;;;;64.78;34.95;;;;;;;-5.16;68.32;93386.41;5103395;28;20031;-46
2021/12/24 07:20:38;;;;;;;217.65;97.75;;;;;;;-5.28;69.52;93394.66;5110407;27;20035;-47
2021/12/24 07:23:04;;;;;;;136.05;64.40;;;;;;;-5.03;70.18;93407.78;5107145;27;20032;-49
2021/12/24 07:25:30;;;;;;;90.72;46.03;;;;;;;-5.08;70.47;93409.13;5097562;27;20042;-47
2021/12/24 07:27:57;;;;;;;73.07;36.88;;;;;;;-4.77;67.98;93400.88;5098833;28;20121;-53
2021/12/24 07:30:22;;;;;;;80.05;40.42;;;;;;;-4.75;69.17;93385.75;5099298;28;20019;-47
2021/12/24 07:32:48;;;;;;;70.22;42.05;;;;;;;-4.44;68.32;93398.25;5102457;28;20351;-51
2021/12/24 07:35:14;;;;;;;82.22;43.88;;;;;;;-4.11;67.79;93405.16;5104474;28;20035;-50
2021/12/24 07:37:41;;;;;;;56.38;32.78;;;;;;;-3.93;66.08;93391.59;5106427;27;20039;-49
2021/12/24 07:40:08;;;;;;;62.55;33.40;;;;;;;-4.06;65.72;93372.19;5105669;28;20070;-49
2021/12/24 07:42:33;;;;;;;89.68;52.03;;;;;;;-3.98;66.53;93389.50;5107789;27;20404;-51
2021/12/24 07:44:59;;;;;;;74.68;42.42;;;;;;;-3.71;66.55;93382.47;5105706;27;20030;-47
2021/12/24 07:47:31;;;;;;;90.63;46.13;;;;;;;-3.61;66.53;93386.59;5104791;28;20465;-48
2021/12/24 07:50:03;;;;;;;64.53;35.33;;;;;;;-3.58;66.37;93381.06;5102791;28;20536;-48
2021/12/24 07:52:29;;;;;;;74.03;37.38;;;;;;;-3.36;65.44;93386.16;5109940;27;20580;-49
2021/12/24 07:54:55;;;;;;;56.90;27.67;;;;;;;-3.25;65.28;93387.09;5097736;28;20036;-51
2021/12/24 07:57:22;;;;;;;45.35;24.88;;;;;;;-3.71;66.60;93383.22;5103715;28;20042;-49
2021/12/24 07:59:48;;;;;;;54.72;28.33;;;;;;;-3.27;66.11;93362.50;5099825;28;20020;-51
2021/12/24 08:02:23;;;;;;;49.38;27.38;;;;;;;-2.68;64.84;93370.69;5110153;27;20051;-51
2021/12/24 08:04:48;;;;;;;54.03;31.77;;;;;;;-2.18;63.92;93374.19;5098590;28;20417;-51
2021/12/24 08:07:20;;;;;;;42.45;22.75;;;;;;;-1.80;63.26;93372.06;5105301;28;20030;-49
2021/12/24 08:09:47;;;;;;;26.13;16.95;;;;;;;-1.32;60.32;93372.44;5097433;28;20093;-53
2021/12/24 08:12:12;;;;;;;26.80;15.75;;;;;;;-0.16;57.70;93373.63;5106973;28;20489;-51
2021/12/24 08:14:38;;;;;;;29.92;16.20;;;;;;;0.26;56.46;93372.19;5104182;28;20024;-49
2021/12/24 08:17:04;;;;;;;35.58;17.30;;;;;;;0.32;54.50;93368.28;5100129;28;20062;-60
2021/12/24 08:19:30;;;;;;;35.58;22.05;;;;;;;-1.12;58.64;93385.22;5093640;28;20110;-47
2021/12/24 08:21:57;;;;;;;28.75;18.42;;;;;;;0.32;57.86;93362.09;5105886;28;20034;-49
2021/12/24 08:24:22;;;;;;;31.00;18.40;;;;;;;1.63;52.90;93356.84;5105857;28;20024;-47
2021/12/24 08:26:48;;;;;;;44.42;24.58;;;;;;;3.23;50.20;93375.66;5106192;28;20027;-47
2021/12/24 08:29:14;;;;;;;37.05;21.58;;;;;;;4.69;46.05;93374.09;5075877;28;20034;-49
2021/12/24 08:31:40;;;;;;;29.80;19.92;;;;;;;5.69;42.65;93310.66;5103131;28;20028;-48
2021/12/24 08:34:05;;;;;;;27.63;18.35;;;;;;;7.18;40.25;93370.47;5096985;28;20038;-46
2021/12/24 08:36:33;;;;;;;26.35;18.60;;;;;;;7.78;38.43;93381.50;5104159;27;20028;-61
2021/12/24 08:38:58;;;;;;;26.88;17.95;;;;;;;8.62;37.45;93362.56;5100032;27;20031;-66
2021/12/24 08:41:24;;;;;;;25.02;17.45;;;;;;;9.12;35.91;93367.53;5105235;27;20030;-65
2021/12/24 08:43:50;;;;;;;18.33;12.88;;;;;;;9.31;34.04;93370.03;5102006;28;20016;-62
2021/12/24 08:48:46;;;;;;;20.23;15.38;;;;;;;10.58;32.36;93346.19;5047845;28;20049;-60
2021/12/24 08:51:11;;;;;;;20.60;15.38;;;;;;;11.08;31.53;93339.00;5040346;28;20028;-59
2021/12/24 08:53:38;;;;;;;17.90;13.70;;;;;;;9.67;32.01;93328.69;5042142;28;20034;-62
2021/12/24 08:56:03;;;;;;;51.58;35.00;;;;;;;9.59;32.89;93319.66;5047046;28;20024;-62
2021/12/24 08:58:29;;;;;;;32.08;23.33;;;;;;;10.88;33.58;93323.34;5045375;28;20433;-60
2021/12/24 09:00:55;;;;;;;36.67;24.77;;;;;;;11.42;30.23;93328.25;5046714;28;20160;-60
2021/12/24 09:03:20;;;;;;;23.95;17.65;;;;;;;11.96;30.52;93316.44;5050276;28;20083;-59
2021/12/24 09:05:46;;;;;;;26.20;19.83;;;;;;;12.15;29.17;93321.50;5051153;28;20029;-60
2021/12/24 09:08:12;;;;;;;29.70;21.65;;;;;;;13.03;29.81;93311.63;5050803;28;20062;-58
2021/12/24 09:10:37;;;;;;;26.75;19.67;;;;;;;12.52;28.57;93303.91;5043360;28;20028;-55
2021/12/24 09:13:03;;;;;;;23.25;17.75;;;;;;;12.49;29.01;93315.41;5042913;28;20041;-57
2021/12/24 09:15:30;;;;;;;24.50;18.98;;;;;;;13.13;29.56;93309.72;5046433;28;20131;-59
2021/12/24 09:18:00;;;;;;;26.45;19.10;;;;;;;13.72;29.09;93308.91;5041348;28;20052;-58
2021/12/24 09:20:31;;;;;;;33.53;24.10;;;;;;;13.94;27.94;93291.25;5047628;28;20200;-61
2021/12/24 09:22:59;;;;;;;21.55;17.17;;;;;;;14.03;28.32;93285.03;5045404;28;20039;-60
2021/12/24 09:25:26;;;;;;;19.83;16.60;;;;;;;14.69;27.14;93281.13;5039793;28;20090;-63
2021/12/24 09:27:51;;;;;;;20.65;14.10;;;;;;;15.04;26.35;93277.59;5042007;28;20037;-59
2021/12/24 09:30:17;;;;;;;17.48;15.57;;;;;;;15.11;25.72;93271.16;5044021;28;20030;-60
2021/12/24 09:32:43;;;;;;;22.40;17.23;;;;;;;15.31;25.16;93258.00;5052209;28;20028;-59
2021/12/24 09:35:10;;;;;;;20.15;15.05;;;;;;;15.56;26.70;93266.09;5052875;28;20039;-58
2021/12/24 09:37:36;;;;;;;17.75;13.65;;;;;;;16.04;25.44;93238.22;5064828;28;20063;-61
2021/12/24 09:40:04;;;;;;;13.07;10.38;;;;;;;16.63;24.26;93266.06;5051648;28;20032;-61
2021/12/24 09:42:31;;;;;;;15.63;11.60;;;;;;;16.81;23.40;93270.09;5051803;28;20047;-62
2021/12/24 09:44:57;;;;;;;12.35;9.77;;;;;;;15.54;24.76;93247.22;5055995;28;20086;-63
2021/12/24 09:47:24;;;;;;;20.27;16.80;;;;;;;16.10;25.33;93272.78;5068209;28;20048;-60
2021/12/24 09:52:20;;;;;;;17.52;11.85;;;;;;;16.98;24.89;93264.28;5107277;27;20056;-61
2021/12/24 09:54:47;;;;;;;18.55;9.68;;;;;;;16.94;24.37;93257.69;5108838;28;20039;-62
2021/12/24 09:57:13;;;;;;;7.78;5.93;;;;;;;16.74;24.28;93245.19;5110333;28;20027;-57
2021/12/24 09:59:40;;;;;;;27.92;16.10;;;;;;;15.97;24.66;93256.53;5121731;27;20380;-58
2021/12/24 10:02:15;;;;;;;12.85;8.15;;;;;;;16.02;25.31;93232.50;5118973;27;20027;-59
2021/12/24 10:04:42;;;;;;;9.07;7.90;;;;;;;16.19;25.16;93260.16;5102324;27;20031;-58
2021/12/24 10:07:10;;;;;;;18.48;12.77;;;;;;;15.60;25.84;93224.66;5105017;27;20098;-62
2021/12/24 10:09:36;;;;;;;12.07;9.85;;;;;;;16.41;26.35;93237.38;5107091;28;20427;-61
2021/12/24 10:12:08;;;;;;;10.65;7.90;;;;;;;16.36;25.07;93226.53;5120558;27;20852;-61
2021/12/24 10:14:39;;;;;;;12.82;10.10;;;;;;;16.75;24.62;93225.06;5127594;27;20488;-62
2021/12/24 10:17:22;;;;;;;8.13;6.32;;;;;;;16.20;24.58;93223.34;5108902;27;20039;-61
2021/12/24 10:19:58;;;;;;;11.60;7.90;;;;;;;15.64;25.37;93238.84;5089797;28;20084;-59
2021/12/24 10:22:24;;;;;;;14.25;10.50;;;;;;;14.26;28.16;93224.34;5108244;28;20069;-61
2021/12/24 10:25:13;;;;;;;18.80;10.05;;;;;;;15.14;27.44;93225.50;5109023;28;20403;-62
2021/12/24 10:27:40;;;;;;;12.80;6.97;;;;;;;15.43;27.08;93224.78;5109413;28;20108;-60
2021/12/24 10:30:22;;;;;;;11.25;7.00;;;;;;;15.99;26.67;93228.84;5110003;28;20027;-60
2021/12/24 10:32:49;;;;;;;13.02;7.75;;;;;;;16.72;25.55;93229.03;5109633;28;20028;-58
2021/12/24 10:35:33;;;;;;;16.05;10.98;;;;;;;16.90;25.34;93224.69;5109707;28;20023;-60
2021/12/24 10:38:13;;;;;;;9.80;7.10;;;;;;;16.94;25.31;93218.66;5103996;28;20515;-59
2021/12/24 10:41:01;;;;;;;13.50;7.82;;;;;;;16.56;24.92;93214.03;5089818;28;20023;-62
2021/12/24 10:43:34;;;;;;;9.90;7.72;;;;;;;16.87;24.88;93208.44;5088053;28;20035;-61
2021/12/24 10:46:10;;;;;;;10.50;7.78;;;;;;;16.30;24.81;93203.84;5089561;28;20500;-56
2021/12/24 10:48:47;;;;;;;18.08;12.68;;;;;;;16.01;25.41;93212.28;5102810;28;20616;-63
2021/12/24 10:51:21;;;;;;;8.73;7.05;;;;;;;15.28;26.86;93194.47;5098032;28;20441;-60
2021/12/24 10:54:13;;;;;;;9.77;6.88;;;;;;;14.74;28.24;93189.16;5089498;28;20459;-62
2021/12/24 10:56:38;;;;;;;9.23;6.45;;;;;;;15.25;28.20;93184.50;5082797;28;20071;-63
2021/12/24 10:59:05;;;;;;;13.63;7.50;;;;;;;15.14;28.06;93178.22;5088319;28;20496;-61
2021/12/24 11:01:31;;;;;;;8.88;5.80;;;;;;;14.71;28.65;93173.63;5089079;28;20455;-61
2021/12/24 11:03:57;;;;;;;8.10;5.65;;;;;;;15.11;26.75;93159.94;5088938;28;20032;-62
2021/12/24 11:06:29;;;;;;;7.30;5.90;;;;;;;15.50;27.05;93177.38;5089130;28;20027;-62
2021/12/24 11:08:55;;;;;;;9.45;6.38;;;;;;;15.05;27.48;93167.81;5088865;28;20032;-62
2021/12/24 11:11:21;;;;;;;19.02;9.82;;;;;;;15.02;27.74;93132.88;5088746;28;20042;-61
2021/12/24 11:13:47;;;;;;;15.15;9.43;;;;;;;15.58;27.61;93166.81;5088281;28;20110;-63
2021/12/24 11:16:19;;;;;;;9.70;7.15;;;;;;;15.99;28.34;93164.78;5088648;28;20570;-61
2021/12/24 11:18:54;;;;;;;11.60;6.78;;;;;;;16.10;27.53;93161.38;5086836;28;20036;-61
2021/12/24 11:21:22;;;;;;;16.67;11.52;;;;;;;16.08;27.64;93172.38;5089085;28;20034;-59
2021/12/24 11:23:48;;;;;;;12.77;7.55;;;;;;;15.70;27.26;93156.50;5088543;28;20038;-58
2021/12/24 11:26:19;;;;;;;13.05;6.70;;;;;;;15.60;27.31;93163.41;5088488;28;20539;-56
2021/12/24 11:28:46;;;;;;;19.45;10.57;;;;;;;15.76;27.81;93165.31;5087888;28;20032;-53
2021/12/24 11:31:15;;;;;;;11.15;6.25;;;;;;;15.36;28.30;93145.72;5088228;28;20087;-60
2021/12/24 11:33:42;;;;;;;13.05;7.53;;;;;;;15.29;28.06;93159.78;5088401;28;20162;-60
2021/12/24 11:36:16;;;;;;;71.85;47.25;;;;;;;15.56;28.21;93160.34;5088143;28;20531;-55
2021/12/24 11:38:47;;;;;;;14.02;9.45;;;;;;;15.17;28.34;93157.59;5088127;28;20420;-58
2021/12/24 11:41:15;;;;;;;9.65;7.10;;;;;;;14.57;29.33;93150.38;5088461;28;20407;-59
2021/12/24 11:43:50;;;;;;;9.98;6.75;;;;;;;13.96;29.99;93155.41;5088351;28;20019;-55
2021/12/24 11:46:18;;;;;;;25.52;16.45;;;;;;;13.90;30.95;93144.59;5088656;28;20088;-60
2021/12/24 11:48:45;;;;;;;20.45;13.75;;;;;;;13.91;30.22;93145.31;5087838;28;20035;-60
2021/12/24 11:51:19;;;;;;;15.32;10.27;;;;;;;14.15;30.49;93152.69;5093233;28;20046;-60
2021/12/24 11:53:46;;;;;;;16.45;13.32;;;;;;;13.83;32.10;93161.34;5103104;28;20050;-61
2021/12/24 11:56:15;;;;;;;19.15;13.55;;;;;;;13.61;30.68;93146.47;5098509;28;20103;-59
2021/12/24 11:58:52;;;;;;;28.75;15.15;;;;;;;13.11;31.68;93151.56;5102270;28;20038;-62
2021/12/24 12:01:20;;;;;;;27.42;17.25;;;;;;;13.48;30.89;93158.69;5106742;28;20055;-63
2021/12/24 12:03:49;;;;;;;32.15;21.65;;;;;;;12.91;32.67;93150.66;5105964;28;20055;-59
2021/12/24 12:06:35;;;;;;;9.30;6.22;;;;;;;12.73;32.85;93154.72;5107285;28;20034;-60
2021/12/24 12:09:10;;;;;;;10.63;6.03;;;;;;;12.79;33.25;93160.03;5106359;28;20098;-60
2021/12/24 12:11:38;;;;;;;8.07;5.93;;;;;;;12.55;32.57;93158.78;5103548;28;20046;-59
2021/12/24 12:14:15;;;;;;;10.63;6.68;;;;;;;12.73;32.72;93154.00;5084679;28;20123;-59
2021/12/24 12:16:54;;;;;;;66.38;52.92;;;;;;;13.05;33.68;93153.84;5086281;28;20032;-60
2021/12/24 12:19:28;;;;;;;14.35;11.00;;;;;;;12.80;33.59;93145.59;5087558;28;20035;-60
2021/12/24 12:22:30;;;;;;;15.88;11.00;;;;;;;11.23;36.59;93162.84;5085638;28;20040;-61
2021/12/24 12:25:01;;;;;;;12.23;8.88;;;;;;;11.66;36.88;93155.41;5088047;28;20050;-59
2021/12/24 12:27:45;;;;;;;11.35;8.32;;;;;;;12.16;36.53;93145.84;5087199;28;20464;-56
2021/12/24 12:30:17;;;;;;;20.17;13.07;;;;;;;12.16;36.35;93149.38;5087484;28;20032;-61
2021/12/24 12:32:43;;;;;;;10.60;8.13;;;;;;;12.13;36.00;93147.72;5087910;28;20052;-58
2021/12/24 12:35:09;;;;;;;12.38;10.13;;;;;;;11.86;37.64;93146.84;5098921;28;20077;-58
2021/12/24 12:37:50;;;;;;;22.92;13.88;;;;;;;11.75;37.49;93138.25;5100935;28;20020;-60
2021/12/24 12:40:16;;;;;;;13.73;7.55;;;;;;;11.57;36.53;93136.66;5084461;28;20570;-62
2021/12/24 12:42:51;;;;;;;13.85;11.27;;;;;;;11.31;38.93;93135.16;5088091;28;20111;-61
2021/12/24 12:45:23;;;;;;;11.15;7.70;;;;;;;11.50;38.38;93138.19;5085108;28;20024;-61
2021/12/24 12:47:56;;;;;;;13.82;10.40;;;;;;;11.75;38.52;93130.69;5069141;28;20175;-61
2021/12/24 12:50:23;;;;;;;9.38;6.90;;;;;;;11.92;37.88;93119.69;5086771;28;20075;-62
2021/12/24 12:52:51;;;;;;;11.50;4.82;;;;;;;11.72;36.73;93122.78;5087196;28;20401;-61
2021/12/24 12:55:30;;;;;;;10.68;5.65;;;;;;;11.62;36.39;93122.63;5086794;28;20040;-60
2021/12/24 12:58:21;;;;;;;8.82;6.43;;;;;;;11.32;38.88;93129.09;5078216;28;20043;-61
2021/12/24 13:01:16;;;;;;;55.65;32.05;;;;;;;11.24;39.46;93128.38;5086318;28;20040;-61
2021/12/24 13:03:57;;;;;;;11.18;6.53;;;;;;;10.86;39.34;93127.09;5083891;28;20043;-61
2021/12/24 13:06:23;;;;;;;48.67;33.28;;;;;;;10.48;39.97;93121.72;5086968;28;20126;-60
2021/12/24 13:08:49;;;;;;;7.45;5.95;;;;;;;10.39;43.20;93125.03;5086976;28;20115;-62
2021/12/24 13:11:18;;;;;;;7.38;5.38;;;;;;;10.39;43.08;93125.03;5085511;28;20028;-63
2021/12/24 13:13:52;;;;;;;7.20;5.65;;;;;;;10.38;43.88;93120.78;5085643;28;20754;-60
2021/12/24 13:16:20;;;;;;;15.43;12.20;;;;;;;10.07;43.26;93117.31;5087250;28;20055;-61